Time;durP1;ratioP1;P1;durP2;ratioP2;P2;SDS_P1;SDS_P2;PMS_P1;PMS_P2;Temp;Humidity;BMP_temperature;BMP_pressure;BME280_temperature;BME280_humidity;BME280_pressure;Samples;Min_cycle;Max_cycle;Signal;HPM_P1;HPM_P2
2023/09/17 00:01:02;;;;;;;13.63;9.02;;;;;;;14.86;92.34;101455.25;5019354;28;20491;-78
2023/09/17 00:03:28;;;;;;;13.80;9.10;;;;;;;14.85;92.64;101455.56;4987534;28;20065;-78
2023/09/17 00:05:54;;;;;;;14.30;9.55;;;;;;;14.85;92.33;101453.66;5021439;28;20084;-79
2023/09/17 00:08:19;;;;;;;11.02;9.00;;;;;;;14.81;92.45;101455.28;5019309;28;20034;-77
2023/09/17 00:10:45;;;;;;;;;;;;;;;14.80;92.29;101458.28;5002492;28;20488;-81
2023/09/17 00:13:12;;;;;;;13.70;8.63;;;;;;;14.74;92.28;101446.72;5002123;28;19924;-76
2023/09/17 00:15:38;;;;;;;10.23;9.05;;;;;;;14.75;92.40;101451.00;5017209;28;20037;-76
2023/09/17 00:18:04;;;;;;;9.52;8.50;;;;;;;14.73;92.51;101453.19;4995358;28;20044;-78
2023/09/17 00:20:29;;;;;;;;;;;;;;;14.73;92.60;101455.88;5005253;28;20064;-77
2023/09/17 00:22:55;;;;;;;10.70;9.00;;;;;;;14.69;92.14;101447.53;5017368;28;19917;-77
2023/09/17 00:25:21;;;;;;;11.70;8.73;;;;;;;14.64;92.00;101452.19;4982762;28;20033;-76
2023/09/17 00:27:46;;;;;;;;;;;;;;;14.67;92.13;101459.69;5003363;28;20033;-77
2023/09/17 00:30:13;;;;;;;13.10;9.18;;;;;;;14.59;92.41;101446.81;5002572;28;19916;-77
2023/09/17 00:32:40;;;;;;;13.52;9.00;;;;;;;14.59;92.84;101453.00;5001004;28;20037;-80
2023/09/17 00:35:06;;;;;;;15.38;9.75;;;;;;;14.59;92.83;101450.31;4989224;28;20034;-79
2023/09/17 00:37:32;;;;;;;17.83;10.52;;;;;;;14.56;92.59;101447.34;4997542;28;20033;-77
2023/09/17 00:39:57;;;;;;;;;;;;;;;14.56;93.21;101452.75;4984146;28;20045;-78
2023/09/17 00:42:23;;;;;;;12.57;8.90;;;;;;;14.53;93.05;101456.03;5008169;28;19916;-77
2023/09/17 00:44:49;;;;;;;;;;;;;;;14.54;92.92;101457.63;5002884;28;20037;-77
2023/09/17 00:47:15;;;;;;;10.93;9.27;;;;;;;14.51;92.73;101458.19;5005691;28;19921;-77
2023/09/17 00:49:41;;;;;;;12.07;10.23;;;;;;;14.52;93.05;101462.50;5019628;28;20049;-79
2023/09/17 00:52:15;;;;;;;12.55;10.65;;;;;;;14.50;92.92;101456.59;4997781;28;20050;-80
2023/09/17 00:54:41;;;;;;;14.75;11.50;;;;;;;14.44;93.54;101459.28;4984692;28;20042;-77
2023/09/17 00:57:07;;;;;;;11.82;8.77;;;;;;;14.41;93.98;101451.72;5015430;28;20064;-81
2023/09/17 00:59:33;;;;;;;;;;;;;;;14.40;93.59;101452.81;5014340;28;20041;-80
2023/09/17 01:02:00;;;;;;;15.23;8.82;;;;;;;14.33;93.41;101455.00;5004658;28;19916;-83
2023/09/17 01:04:27;;;;;;;14.98;8.90;;;;;;;14.35;93.49;101443.94;5002879;28;20041;-76
2023/09/17 01:06:55;;;;;;;11.32;9.80;;;;;;;14.31;93.58;101454.50;5019754;28;20034;-78
2023/09/17 01:09:22;;;;;;;14.75;9.63;;;;;;;14.28;93.40;101452.31;5000075;28;20063;-78
2023/09/17 01:11:49;;;;;;;15.27;10.93;;;;;;;14.24;93.70;101443.22;5008397;28;20045;-79
2023/09/17 01:14:14;;;;;;;;;;;;;;;14.22;93.95;101448.03;4988500;28;20033;-78
2023/09/17 01:16:44;;;;;;;12.10;10.77;;;;;;;14.18;93.94;101444.31;4983567;28;19924;-78
2023/09/17 01:19:16;;;;;;;13.48;11.77;;;;;;;14.20;94.20;101436.75;5020492;28;20116;-77
2023/09/17 01:21:51;;;;;;;15.32;12.25;;;;;;;14.19;94.52;101446.72;5009055;28;20038;-78
2023/09/17 01:24:40;;;;;;;13.73;10.48;;;;;;;14.20;93.96;101445.63;4983704;28;20565;-80
2023/09/17 01:27:06;;;;;;;13.13;10.65;;;;;;;14.17;94.26;101448.91;5004578;28;20061;-79
2023/09/17 01:29:38;;;;;;;13.60;10.05;;;;;;;14.17;93.63;101453.47;5014659;28;20049;-77
2023/09/17 01:32:05;;;;;;;14.70;12.30;;;;;;;14.16;94.15;101457.25;5015116;28;20041;-80
2023/09/17 01:34:33;;;;;;;12.45;10.30;;;;;;;14.17;94.17;101453.47;5004057;28;20045;-77
2023/09/17 01:37:02;;;;;;;11.93;9.48;;;;;;;14.16;94.01;101451.88;5002438;28;20040;-78
2023/09/17 01:39:33;;;;;;;12.80;10.68;;;;;;;14.14;94.15;101448.63;5012057;28;20171;-78
2023/09/17 01:42:03;;;;;;;12.15;10.25;;;;;;;14.12;94.06;101451.59;5017509;28;20091;-78
2023/09/17 01:44:30;;;;;;;15.48;12.70;;;;;;;14.10;94.33;101455.66;5002932;28;20068;-77
2023/09/17 01:47:00;;;;;;;15.38;11.18;;;;;;;14.06;94.16;101446.50;4985377;28;20037;-78
2023/09/17 01:49:28;;;;;;;11.80;9.50;;;;;;;14.05;93.87;101447.59;5006076;28;20121;-79
2023/09/17 01:51:56;;;;;;;11.18;9.18;;;;;;;14.03;93.72;101452.47;5016635;28;20056;-78
2023/09/17 01:54:23;;;;;;;12.65;10.27;;;;;;;14.03;93.26;101458.66;5000694;28;20053;-77
2023/09/17 01:56:48;;;;;;;15.80;10.90;;;;;;;14.03;93.18;101447.06;4997979;28;20103;-78
2023/09/17 01:59:15;;;;;;;;;;;;;;;14.00;93.33;101453.78;5001402;28;20817;-77
2023/09/17 02:01:42;;;;;;;11.43;8.55;;;;;;;13.96;93.12;101447.38;5023229;28;20008;-78
2023/09/17 02:04:09;;;;;;;10.57;8.80;;;;;;;13.98;92.90;101439.81;5017055;28;20063;-77
2023/09/17 02:06:36;;;;;;;13.55;10.35;;;;;;;14.00;93.45;101453.00;5010666;28;20122;-77
2023/09/17 02:09:05;;;;;;;11.45;9.80;;;;;;;13.96;93.42;101447.38;4995180;28;20045;-78
2023/09/17 02:11:32;;;;;;;14.23;9.98;;;;;;;13.95;93.34;101445.72;5011800;28;20041;-78
2023/09/17 02:13:57;;;;;;;13.38;9.40;;;;;;;13.94;93.23;101450.31;4994515;28;20515;-78
2023/09/17 02:16:23;;;;;;;;;;;;;;;13.92;93.18;101440.91;5017063;28;20040;-77
2023/09/17 02:18:51;;;;;;;12.30;10.35;;;;;;;13.88;93.49;101446.03;4999738;28;19932;-78
2023/09/17 02:21:16;;;;;;;16.13;11.05;;;;;;;13.85;93.75;101435.81;5000599;28;20494;-79
2023/09/17 02:23:43;;;;;;;;;;;;;;;13.86;93.98;101439.31;4998140;28;20045;-79
2023/09/17 02:26:08;;;;;;;17.02;10.38;;;;;;;13.82;93.88;101441.75;5014291;28;20015;-80
2023/09/17 02:28:34;;;;;;;;;;;;;;;13.82;93.62;101447.16;5020178;28;20051;-78
2023/09/17 02:30:59;;;;;;;12.05;8.40;;;;;;;13.77;93.54;101443.66;5014144;28;19917;-79
2023/09/17 02:33:25;;;;;;;;;;;;;;;13.75;92.90;101438.56;5000214;28;20042;-78
2023/09/17 02:35:52;;;;;;;9.85;8.07;;;;;;;13.72;93.16;101449.84;4993636;28;19917;-78
2023/09/17 02:38:17;;;;;;;;;;;;;;;13.71;93.50;101437.47;5002965;28;20037;-79
2023/09/17 02:40:43;;;;;;;14.38;9.25;;;;;;;13.65;93.87;101431.28;5001886;28;20401;-80
2023/09/17 02:43:09;;;;;;;16.75;11.20;;;;;;;13.62;94.06;101431.03;4999608;28;20082;-79
2023/09/17 02:45:35;;;;;;;15.48;9.20;;;;;;;13.60;93.95;101434.00;5002072;28;20041;-78
2023/09/17 02:48:01;;;;;;;13.55;10.68;;;;;;;13.58;93.91;101427.28;5014253;28;20103;-79
2023/09/17 02:50:27;;;;;;;;;;;;;;;13.58;94.04;101427.28;5003573;28;20076;-78
2023/09/17 02:52:52;;;;;;;10.20;8.65;;;;;;;13.56;93.76;101437.53;5016119;28;19956;-78
2023/09/17 02:55:18;;;;;;;;;;;;;;;13.55;94.07;101444.78;5018135;28;20033;-77
2023/09/17 02:57:44;;;;;;;14.10;9.68;;;;;;;13.52;94.07;101439.13;5020377;28;19936;-79
2023/09/17 03:00:10;;;;;;;;;;;;;;;13.51;94.52;101440.22;4998537;28;20030;-78
2023/09/17 03:02:38;;;;;;;11.77;9.68;;;;;;;13.45;94.74;101430.53;5002759;28;19924;-77
2023/09/17 03:05:04;;;;;;;12.63;10.07;;;;;;;13.45;95.09;101436.72;5012252;28;20073;-78
2023/09/17 03:07:32;;;;;;;12.50;9.85;;;;;;;13.48;95.00;101435.34;5018366;28;20033;-78
2023/09/17 03:09:59;;;;;;;;;;;;;;;13.47;94.76;101439.94;5001801;28;20091;-78
2023/09/17 03:12:27;;;;;;;13.70;8.85;;;;;;;13.48;94.58;101430.81;5004574;28;19963;-77
2023/09/17 03:14:53;;;;;;;12.30;8.52;;;;;;;13.49;94.48;101437.00;5004324;28;20120;-78
2023/09/17 03:17:18;;;;;;;13.10;11.07;;;;;;;13.49;94.98;101428.91;5005951;28;20037;-78
2023/09/17 03:19:44;;;;;;;;;;;;;;;13.50;95.78;101427.84;4999492;28;20042;-79
2023/09/17 03:22:09;;;;;;;13.15;9.82;;;;;;;13.46;95.88;101426.75;5022241;28;19923;-79
2023/09/17 03:24:35;;;;;;;;;;;;;;;13.47;95.59;101422.97;5019991;28;20047;-78
2023/09/17 03:27:00;;;;;;;14.48;10.05;;;;;;;13.45;95.33;101430.53;5021693;28;19921;-80
2023/09/17 03:29:27;;;;;;;11.68;10.15;;;;;;;13.47;95.49;101431.06;5021798;28;20036;-80
2023/09/17 03:31:52;;;;;;;;;;;;;;;13.52;95.33;101441.81;5000954;28;20037;-78
2023/09/17 03:34:19;;;;;;;10.45;9.35;;;;;;;13.49;95.72;101428.91;4995880;28;19952;-78
2023/09/17 03:36:44;;;;;;;13.63;10.80;;;;;;;13.49;95.54;101437.00;4996560;28;20618;-77
2023/09/17 03:39:12;;;;;;;;;;;;;;;13.49;95.77;101437.00;5001231;28;20034;-80
2023/09/17 03:41:40;;;;;;;13.57;9.90;;;;;;;13.46;95.26;101421.38;5003437;28;19917;-79
2023/09/17 03:44:07;;;;;;;11.90;10.38;;;;;;;13.47;95.22;101422.97;4996328;28;20033;-82
2023/09/17 03:46:33;;;;;;;13.68;12.05;;;;;;;13.44;95.42;101426.22;5005015;28;20034;-76
2023/09/17 03:48:59;;;;;;;;;;;;;;;13.44;95.43;101428.91;5021731;28;20113;-77
2023/09/17 03:51:26;;;;;;;13.80;9.88;;;;;;;13.38;95.56;101431.63;5007225;28;20067;-78
2023/09/17 03:53:53;;;;;;;12.40;9.48;;;;;;;13.37;95.33;101437.28;5023547;28;20060;-77
2023/09/17 03:56:20;;;;;;;14.75;9.18;;;;;;;13.37;94.75;101427.31;5016562;28;20498;-78
2023/09/17 03:58:47;;;;;;;;;;;;;;;13.38;94.72;101437.00;5016855;28;20041;-78
2023/09/17 04:01:14;;;;;;;11.07;8.35;;;;;;;13.35;94.57;101426.78;5019469;28;19920;-78
2023/09/17 04:03:40;;;;;;;10.82;9.20;;;;;;;13.38;94.58;101430.81;5015703;28;20033;-79
2023/09/17 04:06:06;;;;;;;10.88;9.35;;;;;;;13.38;94.72;101437.00;4986183;28;20057;-79
2023/09/17 04:08:31;;;;;;;;;;;;;;;13.41;95.01;101440.22;5019025;28;20037;-79
2023/09/17 04:10:57;;;;;;;12.55;9.02;;;;;;;13.37;94.80;101431.91;5003420;28;19924;-77
2023/09/17 04:13:22;;;;;;;;;;;;;;;13.35;95.25;101440.25;5017735;28;20037;-77
2023/09/17 04:15:49;;;;;;;11.80;10.25;;;;;;;13.30;95.29;101434.84;5017451;28;19916;-78
2023/09/17 04:18:15;;;;;;;12.93;10.38;;;;;;;13.27;95.22;101437.28;4992140;28;20029;-79
2023/09/17 04:20:41;;;;;;;17.38;12.95;;;;;;;13.26;95.31;101447.22;5022660;28;20582;-78
2023/09/17 04:23:07;;;;;;;;;;;;;;;13.24;95.36;101440.50;5002300;28;20037;-78
2023/09/17 04:25:34;;;;;;;16.40;11.55;;;;;;;13.19;95.63;101438.59;5021207;28;19917;-78
2023/09/17 04:28:00;;;;;;;15.75;12.15;;;;;;;13.18;95.82;101442.38;4985597;28;20478;-78
2023/09/17 04:30:27;;;;;;;14.25;10.93;;;;;;;13.16;95.61;101443.72;5015873;28;20045;-78
2023/09/17 04:32:54;;;;;;;;;;;;;;;13.14;95.69;101433.25;5024035;28;20683;-77
2023/09/17 04:35:21;;;;;;;12.20;10.13;;;;;;;13.12;95.52;101440.75;5004055;28;19912;-78
2023/09/17 04:37:47;;;;;;;;;;;;;;;13.11;95.35;101436.44;4986500;28;20495;-78
2023/09/17 04:40:14;;;;;;;15.30;9.52;;;;;;;13.06;95.16;101437.25;5021236;28;20009;-78
2023/09/17 04:42:48;;;;;;;10.98;9.48;;;;;;;13.06;94.87;101434.56;4988860;28;20160;-78
2023/09/17 04:45:32;;;;;;;12.13;9.48;;;;;;;13.04;94.67;101446.66;5008860;28;20037;-78
2023/09/17 04:47:58;;;;;;;9.88;8.57;;;;;;;13.06;94.49;101453.38;5030492;28;20152;-79
2023/09/17 04:50:25;;;;;;;12.05;9.63;;;;;;;13.05;94.64;101453.66;5019419;28;20497;-77
2023/09/17 04:52:50;;;;;;;;;;;;;;;13.04;94.79;101455.53;5019432;28;20562;-76
2023/09/17 04:55:17;;;;;;;12.82;9.50;;;;;;;13.03;94.91;101456.63;4998643;28;19924;-77
2023/09/17 04:57:44;;;;;;;10.70;9.60;;;;;;;13.04;94.87;101460.13;5020328;28;20112;-78
2023/09/17 05:00:11;;;;;;;;;;;;;;;13.04;94.99;101462.81;5018831;28;20122;-78
2023/09/17 05:02:40;;;;;;;12.68;9.40;;;;;;;13.01;94.97;101471.41;4987390;28;19917;-78
2023/09/17 05:05:10;;;;;;;12.10;9.38;;;;;;;12.97;94.85;101478.41;5018824;28;20042;-78
2023/09/17 05:07:39;;;;;;;10.52;9.32;;;;;;;12.99;94.85;101482.41;5022263;28;20586;-78
2023/09/17 05:10:07;;;;;;;12.05;10.80;;;;;;;12.98;95.22;101480.00;5018780;28;20049;-79
2023/09/17 05:12:34;;;;;;;10.88;9.00;;;;;;;12.99;95.14;101481.59;5002333;28;20041;-77
2023/09/17 05:15:00;;;;;;;10.45;9.35;;;;;;;12.99;94.98;101487.78;5018805;28;20053;-76
2023/09/17 05:17:26;;;;;;;12.60;11.30;;;;;;;12.99;95.22;101479.72;4997793;28;20402;-76
2023/09/17 05:19:53;;;;;;;12.25;11.05;;;;;;;12.98;95.33;101480.81;5013771;28;20426;-78
2023/09/17 05:22:20;;;;;;;12.23;10.95;;;;;;;12.99;95.28;101484.31;5002302;28;20175;-76
2023/09/17 05:24:46;;;;;;;;;;;;;;;12.98;95.79;101490.75;5001347;28;20442;-77
2023/09/17 05:27:11;;;;;;;12.25;10.60;;;;;;;12.98;95.86;101488.06;5017095;28;19917;-77
2023/09/17 05:29:37;;;;;;;;;;;;;;;12.98;95.96;101486.19;5019460;28;20037;-77
2023/09/17 05:32:03;;;;;;;13.65;9.98;;;;;;;12.96;96.35;101493.72;5002758;28;19917;-77
2023/09/17 05:34:30;;;;;;;11.63;8.98;;;;;;;12.98;96.12;101491.56;5002426;28;20506;-78
2023/09/17 05:36:55;;;;;;;;;;;;;;;13.03;96.30;101493.47;4986616;28;20030;-76
2023/09/17 05:39:21;;;;;;;15.82;10.05;;;;;;;13.04;95.88;101492.38;5004198;28;19917;-79
2023/09/17 05:41:47;;;;;;;;;;;;;;;13.09;95.99;101497.78;5019544;28;20033;-76
2023/09/17 05:44:12;;;;;;;14.90;13.40;;;;;;;13.15;97.26;101502.09;5002315;28;19916;-77
2023/09/17 05:46:39;;;;;;;16.15;14.45;;;;;;;13.20;97.56;101504.78;5002585;28;20128;-78
2023/09/17 05:49:06;;;;;;;17.17;15.48;;;;;;;13.23;98.25;101508.84;5013465;28;20117;-77
2023/09/17 05:51:31;;;;;;;;;;;;;;;13.30;98.26;101510.19;5019324;28;20048;-76
2023/09/17 05:53:57;;;;;;;18.20;16.30;;;;;;;13.33;98.55;101516.91;5003525;28;20437;-77
2023/09/17 05:56:25;;;;;;;14.93;13.43;;;;;;;13.35;98.72;101518.25;5005115;28;20041;-78
2023/09/17 05:58:50;;;;;;;15.20;13.60;;;;;;;13.42;98.66;101511.81;5005141;28;20041;-75
2023/09/17 06:01:16;;;;;;;;;;;;;;;13.50;99.25;101514.75;4985300;28;20060;-79
2023/09/17 06:03:42;;;;;;;14.93;13.32;;;;;;;13.54;99.34;101520.38;5013603;28;19913;-77
2023/09/17 06:06:08;;;;;;;18.60;15.82;;;;;;;13.58;99.63;101524.16;5021945;28;20041;-78
2023/09/17 06:08:34;;;;;;;;;;;;;;;13.64;99.74;101517.69;5026225;28;20036;-76
2023/09/17 06:11:00;;;;;;;14.65;13.25;;;;;;;13.66;99.65;101510.97;5011807;28;20285;-78
2023/09/17 06:13:26;;;;;;;14.68;13.27;;;;;;;13.75;99.47;101513.94;5022747;28;20111;-77
2023/09/17 06:15:51;;;;;;;;;;;;;;;13.83;99.49;101513.38;5009929;28;20060;-80
2023/09/17 06:18:18;;;;;;;15.25;13.27;;;;;;;13.95;99.69;101510.34;5005115;28;19921;-76
2023/09/17 06:20:46;;;;;;;15.80;14.25;;;;;;;14.06;100.00;101511.16;5009784;28;20089;-79
2023/09/17 06:23:11;;;;;;;;;;;;;;;14.18;100.00;101503.56;5005705;28;20506;-76
2023/09/17 06:25:37;;;;;;;13.73;11.77;;;;;;;14.27;100.00;101501.91;5018568;28;19924;-77
2023/09/17 06:28:03;;;;;;;;;;;;;;;14.41;99.91;101502.94;5027335;28;20148;-78
2023/09/17 06:30:29;;;;;;;14.10;11.30;;;;;;;14.50;99.28;101499.72;4993610;28;19913;-78
2023/09/17 06:32:55;;;;;;;;;;;;;;;14.65;99.48;101515.78;5008822;28;20042;-78
2023/09/17 06:35:20;;;;;;;13.18;11.30;;;;;;;14.73;99.17;101507.91;5008729;28;20397;-78
2023/09/17 06:37:45;;;;;;;;;;;;;;;14.85;98.32;101512.97;5025555;28;20807;-77
2023/09/17 06:40:14;;;;;;;11.93;10.68;;;;;;;14.92;97.91;101518.88;5022614;28;20400;-79
2023/09/17 06:42:40;;;;;;;11.90;10.70;;;;;;;14.99;97.22;101516.66;5022446;28;20470;-77
2023/09/17 06:45:07;;;;;;;11.38;9.98;;;;;;;15.08;96.75;101524.16;5021627;28;20033;-77
2023/09/17 06:47:35;;;;;;;;;;;;;;;15.16;96.45;101523.56;5023133;28;20037;-78
2023/09/17 06:50:01;;;;;;;11.20;10.10;;;;;;;15.17;96.66;101525.16;5022402;28;19921;-78
2023/09/17 06:52:27;;;;;;;;;;;;;;;15.24;96.64;101528.34;5022786;28;20040;-77
2023/09/17 06:54:52;;;;;;;12.20;9.85;;;;;;;15.25;96.03;101522.69;5012122;28;19916;-77
2023/09/17 06:57:18;;;;;;;;;;;;;;;15.30;95.46;101519.13;5026565;28;20481;-79
2023/09/17 06:59:43;;;;;;;9.68;8.68;;;;;;;15.32;95.16;101514.28;5020306;28;20003;-78
2023/09/17 07:02:09;;;;;;;;;;;;;;;15.37;94.64;101508.00;4992045;28;20043;-78
2023/09/17 07:04:34;;;;;;;9.35;8.43;;;;;;;15.36;94.31;101507.19;5019515;28;20278;-79
2023/09/17 07:07:00;;;;;;;;;;;;;;;15.43;94.50;101502.28;5024600;28;20049;-80
2023/09/17 07:09:31;;;;;;;9.57;8.57;;;;;;;15.50;94.54;101507.34;5006611;28;19967;-79
2023/09/17 07:11:56;;;;;;;9.02;8.13;;;;;;;15.62;93.82;101512.41;5023921;28;20033;-79
2023/09/17 07:14:22;;;;;;;;;;;;;;;15.76;94.59;101524.16;5025293;28;20041;-77
2023/09/17 07:16:48;;;;;;;10.90;8.40;;;;;;;15.81;94.65;101524.09;5017716;28;19912;-79
2023/09/17 07:19:15;;;;;;;10.35;9.35;;;;;;;15.84;94.41;101521.63;5024072;28;20060;-80
2023/09/17 07:21:41;;;;;;;10.18;9.05;;;;;;;15.92;94.20;101520.22;5025741;28;20040;-77
2023/09/17 07:24:06;;;;;;;;;;;;;;;15.98;92.67;101523.66;5006347;28;20041;-79
2023/09/17 07:26:33;;;;;;;8.82;7.93;;;;;;;16.03;91.63;101520.91;5004872;28;19918;-78
2023/09/17 07:28:58;;;;;;;8.93;8.02;;;;;;;16.08;91.24;101513.56;5020697;28;20037;-77
2023/09/17 07:31:24;;;;;;;;;;;;;;;16.14;91.25;101522.41;5005183;28;20407;-78
2023/09/17 07:33:49;;;;;;;9.30;8.18;;;;;;;16.19;91.50;101518.81;5025101;28;20006;-78
2023/09/17 07:36:15;;;;;;;;;;;;;;;16.24;91.17;101516.88;5004356;28;20041;-78
2023/09/17 07:38:40;;;;;;;9.35;8.23;;;;;;;16.32;92.42;101526.22;5025055;28;19921;-78
2023/09/17 07:41:06;;;;;;;;;;;;;;;16.35;91.49;101525.69;5019214;28;20042;-78
2023/09/17 07:43:31;;;;;;;9.45;7.53;;;;;;;16.42;91.78;101523.41;5008935;28;19917;-78
2023/09/17 07:45:57;;;;;;;;;;;;;;;16.48;90.79;101524.97;5024349;28;20524;-79
2023/09/17 07:48:26;;;;;;;10.07;7.90;;;;;;;16.54;90.32;101513.00;5018807;28;20127;-79
2023/09/17 07:50:59;;;;;;;8.75;7.85;;;;;;;16.62;90.70;101511.53;4987107;28;20037;-78
2023/09/17 07:53:25;;;;;;;10.73;8.20;;;;;;;16.71;90.83;101517.13;5024555;28;20037;-77
2023/09/17 07:55:51;;;;;;;9.20;8.10;;;;;;;16.79;90.51;101521.88;5004044;28;20568;-76
2023/09/17 07:58:17;;;;;;;8.95;8.00;;;;;;;16.84;89.75;101516.41;4986719;28;20601;-78
2023/09/17 08:00:45;;;;;;;8.35;7.45;;;;;;;16.90;89.41;101517.94;5021232;28;20033;-78
2023/09/17 08:03:13;;;;;;;12.75;8.45;;;;;;;16.94;88.54;101518.16;5007143;28;20045;-78
2023/09/17 08:05:40;;;;;;;8.18;7.38;;;;;;;16.97;88.23;101518.38;4980398;28;20096;-76
2023/09/17 08:08:07;;;;;;;9.65;8.18;;;;;;;17.03;88.52;101516.41;5010878;28;20042;-79
2023/09/17 08:10:36;;;;;;;10.15;8.18;;;;;;;17.12;89.14;101525.44;5009182;28;20120;-76
2023/09/17 08:13:02;;;;;;;9.55;8.55;;;;;;;17.14;87.87;101520.56;5015497;28;20633;-79
2023/09/17 08:15:29;;;;;;;9.73;7.97;;;;;;;17.19;87.93;101526.69;4999472;28;20649;-78
2023/09/17 08:17:56;;;;;;;10.38;8.27;;;;;;;17.22;87.78;101517.19;4983992;28;20041;-78
2023/09/17 08:20:22;;;;;;;10.20;7.75;;;;;;;17.27;86.84;101516.28;5005890;28;21107;-79
2023/09/17 08:22:51;;;;;;;9.95;8.23;;;;;;;17.36;86.76;101517.22;4985000;28;20057;-78
2023/09/17 08:25:36;;;;;;;9.07;8.02;;;;;;;17.45;86.31;101526.28;5005619;28;20395;-76
2023/09/17 08:28:22;;;;;;;7.88;6.85;;;;;;;17.55;85.27;101514.47;5015972;28;20109;-78
2023/09/17 08:31:08;;;;;;;9.95;7.35;;;;;;;17.70;85.24;101520.41;5016972;28;20068;-79
2023/09/17 08:33:54;;;;;;;10.40;7.53;;;;;;;17.87;85.79;101527.97;5032978;28;20033;-79
2023/09/17 08:36:32;;;;;;;8.30;6.78;;;;;;;18.00;85.99;101520.97;5017740;28;20071;-77
2023/09/17 08:38:58;;;;;;;8.13;7.32;;;;;;;18.06;84.17;101524.38;5022319;28;20045;-78
2023/09/17 08:41:26;;;;;;;9.10;7.15;;;;;;;18.11;83.33;101525.09;5021873;28;20037;-77
2023/09/17 08:43:53;;;;;;;9.25;8.02;;;;;;;18.21;83.99;101524.88;4990143;28;20140;-79
2023/09/17 08:46:22;;;;;;;9.60;7.38;;;;;;;18.30;83.68;101522.28;5002786;28;20097;-78
2023/09/17 08:48:47;;;;;;;7.93;7.13;;;;;;;18.34;82.26;101528.69;4989543;28;20041;-77
2023/09/17 08:51:18;;;;;;;11.23;7.85;;;;;;;18.44;82.00;101522.28;5002586;28;20113;-77
2023/09/17 08:53:53;;;;;;;9.30;7.05;;;;;;;18.52;82.29;101529.69;5018425;28;20266;-78
2023/09/17 08:56:20;;;;;;;7.43;6.60;;;;;;;18.62;83.22;101528.66;4989451;28;20040;-77
2023/09/17 08:58:53;;;;;;;8.77;7.35;;;;;;;18.67;82.29;101523.97;5019790;28;20082;-79
2023/09/17 09:01:25;;;;;;;8.70;7.43;;;;;;;18.73;82.37;101522.75;4998110;28;20049;-77
2023/09/17 09:03:54;;;;;;;9.90;7.20;;;;;;;18.80;81.73;101520.41;4998080;28;20025;-78
2023/09/17 09:06:25;;;;;;;10.38;7.80;;;;;;;18.88;81.51;101509.94;5011906;28;20220;-79
2023/09/17 09:08:52;;;;;;;8.82;7.43;;;;;;;18.93;81.44;101509.81;5012415;28;20038;-79
2023/09/17 09:11:18;;;;;;;8.10;6.93;;;;;;;18.99;81.28;101506.69;5018928;28;20112;-78
2023/09/17 09:13:46;;;;;;;8.90;7.30;;;;;;;19.08;80.40;101499.41;5011112;28;21037;-77
2023/09/17 09:16:12;;;;;;;7.72;6.82;;;;;;;19.16;80.03;101494.34;5001023;28;20722;-79
2023/09/17 09:18:38;;;;;;;7.07;6.22;;;;;;;19.22;80.62;101499.34;4991208;28;20049;-78
2023/09/17 09:21:04;;;;;;;7.07;6.38;;;;;;;19.27;79.83;101499.22;4974070;28;20056;-80
2023/09/17 09:23:31;;;;;;;7.25;5.75;;;;;;;19.34;80.34;101499.56;5017515;28;20055;-79
2023/09/17 09:25:56;;;;;;;7.30;6.55;;;;;;;19.40;79.84;101494.03;5006843;28;20398;-78
2023/09/17 09:28:23;;;;;;;8.73;6.07;;;;;;;19.46;78.83;101498.22;4994115;28;20053;-78
2023/09/17 09:30:49;;;;;;;9.23;5.78;;;;;;;19.48;78.13;101502.22;5010928;28;20041;-77
2023/09/17 09:33:16;;;;;;;6.55;5.57;;;;;;;19.52;77.98;101496.97;5005018;28;20037;-78
2023/09/17 09:35:43;;;;;;;7.22;5.70;;;;;;;19.49;77.29;101486.72;5018427;28;20021;-79
2023/09/17 09:38:11;;;;;;;6.97;6.28;;;;;;;19.51;77.33;101488.03;5002507;28;20415;-78
2023/09/17 09:40:37;;;;;;;6.07;5.47;;;;;;;19.55;78.81;101488.19;5007043;28;20046;-79
2023/09/17 09:43:03;;;;;;;7.30;6.20;;;;;;;19.59;79.18;101483.78;4986787;28;20037;-79
2023/09/17 09:45:29;;;;;;;6.90;5.78;;;;;;;19.63;79.77;101487.47;5001369;28;20046;-80
2023/09/17 09:47:57;;;;;;;6.15;5.55;;;;;;;19.66;78.99;101486.84;5018662;28;20041;-77
2023/09/17 09:50:27;;;;;;;6.18;5.57;;;;;;;19.71;79.03;101484.00;5022016;28;20076;-79
2023/09/17 09:52:54;;;;;;;7.28;5.22;;;;;;;19.76;77.99;101478.41;5007095;28;20096;-78
2023/09/17 09:55:30;;;;;;;7.63;5.97;;;;;;;19.82;78.33;101488.03;4992046;28;20103;-79
2023/09/17 09:57:55;;;;;;;6.30;5.70;;;;;;;19.92;78.52;101488.88;4988390;28;20453;-79
2023/09/17 10:00:29;;;;;;;7.28;5.72;;;;;;;20.12;78.26;101488.31;5013271;28;21008;-79
2023/09/17 10:02:56;;;;;;;8.45;6.35;;;;;;;20.25;77.61;101476.47;5008408;28;20568;-78
2023/09/17 10:05:42;;;;;;;7.35;5.95;;;;;;;20.40;77.54;101473.31;5018645;28;20100;-82
2023/09/17 10:08:08;;;;;;;6.85;5.97;;;;;;;20.55;76.31;101474.81;5008559;28;20042;-78
2023/09/17 10:10:38;;;;;;;6.50;5.18;;;;;;;20.68;76.51;101481.22;5013040;28;20095;-80
2023/09/17 10:13:08;;;;;;;7.00;5.78;;;;;;;20.83;76.31;101482.66;5012886;28;20033;-79
2023/09/17 10:15:35;;;;;;;7.13;5.60;;;;;;;20.96;76.28;101474.31;4998762;28;20569;-78
2023/09/17 10:18:01;;;;;;;7.88;5.78;;;;;;;21.07;73.00;101474.78;5016662;28;20037;-82
2023/09/17 10:20:28;;;;;;;6.72;4.95;;;;;;;21.18;72.94;101475.25;5017685;28;20064;-81
2023/09/17 10:22:57;;;;;;;8.15;5.28;;;;;;;21.36;71.68;101476.84;5008674;28;20037;-77
2023/09/17 10:25:24;;;;;;;5.95;4.80;;;;;;;21.60;70.75;101472.75;5015772;28;20049;-79
2023/09/17 10:27:51;;;;;;;6.03;5.00;;;;;;;21.70;69.93;101475.94;4986301;28;20033;-77
2023/09/17 10:30:18;;;;;;;5.80;5.15;;;;;;;21.77;72.40;101467.25;4984064;28;20175;-77
2023/09/17 10:32:47;;;;;;;5.05;4.32;;;;;;;21.88;69.54;101463.03;5019159;28;20037;-78
2023/09/17 10:35:16;;;;;;;6.55;4.90;;;;;;;21.87;67.85;101461.41;4984347;28;20048;-78
2023/09/17 10:37:43;;;;;;;6.45;4.15;;;;;;;21.78;66.58;101466.09;5003615;28;20095;-78
2023/09/17 10:40:10;;;;;;;5.85;5.07;;;;;;;21.71;67.97;101455.72;5014223;28;20037;-78
2023/09/17 10:42:39;;;;;;;5.40;4.60;;;;;;;21.63;66.52;101463.94;5000975;28;20513;-82
2023/09/17 10:45:07;;;;;;;5.00;4.47;;;;;;;21.65;67.89;101462.47;5018903;28;20079;-82
2023/09/17 10:47:36;;;;;;;5.82;4.50;;;;;;;21.69;67.89;101462.63;5023807;28;20029;-80
2023/09/17 10:50:03;;;;;;;6.43;4.53;;;;;;;21.71;67.57;101465.81;5008524;28;20062;-79
2023/09/17 10:52:32;;;;;;;6.78;4.80;;;;;;;21.71;67.97;101449.47;5003451;28;20103;-78
2023/09/17 10:54:59;;;;;;;5.35;4.47;;;;;;;21.76;67.79;101455.53;5004573;28;20032;-80
2023/09/17 10:57:38;;;;;;;5.00;4.32;;;;;;;21.79;66.37;101445.91;5001061;28;20381;-79
2023/09/17 11:00:14;;;;;;;5.43;4.82;;;;;;;21.89;66.95;101442.81;5018863;28;20036;-79
2023/09/17 11:02:48;;;;;;;4.75;4.25;;;;;;;22.05;67.73;101443.84;5024326;28;20502;-78
2023/09/17 11:05:19;;;;;;;5.18;4.55;;;;;;;22.19;66.48;101431.91;5003201;28;20589;-80
2023/09/17 11:07:45;;;;;;;4.43;4.03;;;;;;;22.30;65.52;101433.13;5012790;28;20030;-80
2023/09/17 11:10:12;;;;;;;4.50;4.10;;;;;;;22.39;66.86;101431.13;5022621;28;20060;-81
2023/09/17 11:12:38;;;;;;;5.35;4.05;;;;;;;22.38;65.46;101426.00;5016692;28;20033;-79
2023/09/17 11:15:06;;;;;;;4.82;4.07;;;;;;;22.31;64.60;101429.25;4991988;28;20045;-79
2023/09/17 11:17:34;;;;;;;4.97;4.00;;;;;;;22.34;64.36;101436.75;4984147;28;20053;-80
2023/09/17 11:20:00;;;;;;;4.82;4.32;;;;;;;22.30;64.98;101427.66;4999463;28;20038;-78
2023/09/17 11:22:29;;;;;;;4.97;4.32;;;;;;;22.33;63.77;101429.72;5026409;28;20668;-81
2023/09/17 11:24:55;;;;;;;4.28;3.88;;;;;;;22.42;64.98;101427.75;5021823;28;20041;-80
2023/09/17 11:27:41;;;;;;;6.28;4.15;;;;;;;22.47;63.62;101430.25;5022264;28;20037;-81
2023/09/17 11:30:15;;;;;;;5.70;4.28;;;;;;;22.62;65.48;101434.28;5027712;28;20045;-78
2023/09/17 11:32:51;;;;;;;4.70;3.80;;;;;;;22.74;63.84;101425.38;4990695;28;20053;-81